Time;durP1;ratioP1;P1;durP2;ratioP2;P2;SDS_P1;SDS_P2;PMS_P1;PMS_P2;Temp;Humidity;BMP_temperature;BMP_pressure;BME280_temperature;BME280_humidity;BME280_pressure;Samples;Min_cycle;Max_cycle;Signal;HPM_P1;HPM_P2
2021/05/27 00:01:57;;;;;;;1.50;1.10;;;11.00;99.90;;;;;;4992456;28;20789;-59
2021/05/27 00:04:23;;;;;;;1.50;1.37;;;11.00;99.90;;;;;;4991927;28;20195;-58
2021/05/27 00:06:49;;;;;;;1.50;1.30;;;10.90;99.90;;;;;;4992366;28;20188;-58
2021/05/27 00:09:14;;;;;;;1.37;1.27;;;10.90;99.90;;;;;;4993803;28;20217;-59
2021/05/27 00:11:40;;;;;;;1.43;1.33;;;10.80;99.90;;;;;;4992001;28;20189;-58
2021/05/27 00:14:06;;;;;;;1.63;1.30;;;10.80;99.90;;;;;;4992277;28;20184;-58
2021/05/27 00:16:31;;;;;;;1.90;1.40;;;10.80;99.90;;;;;;4991458;28;20694;-58
2021/05/27 00:18:58;;;;;;;1.40;1.30;;;10.90;99.90;;;;;;4992058;28;20191;-58
2021/05/27 00:21:24;;;;;;;1.20;1.10;;;10.80;99.90;;;;;;4993252;28;20183;-58
2021/05/27 00:23:50;;;;;;;1.65;1.55;;;11.00;99.90;;;;;;4991936;28;20522;-58
2021/05/27 00:26:16;;;;;;;1.53;1.23;;;11.00;99.90;;;;;;4991739;28;20207;-58
2021/05/27 00:28:42;;;;;;;1.60;1.40;;;10.70;99.90;;;;;;4989634;28;20184;-58
2021/05/27 00:31:08;;;;;;;1.20;1.10;;;10.80;99.90;;;;;;4991540;28;20511;-58
2021/05/27 00:33:34;;;;;;;1.50;1.40;;;11.00;99.90;;;;;;4991789;28;20192;-58
2021/05/27 00:36:00;;;;;;;1.90;1.40;;;10.90;99.90;;;;;;4991389;28;20200;-58
2021/05/27 00:38:26;;;;;;;2.63;1.40;;;10.90;99.90;;;;;;4991472;28;20625;-59
2021/05/27 00:40:51;;;;;;;2.33;1.77;;;10.70;99.90;;;;;;4991193;28;20282;-58
2021/05/27 00:43:17;;;;;;;1.30;1.20;;;11.00;99.90;;;;;;4991636;28;20723;-58
2021/05/27 00:45:43;;;;;;;1.47;1.37;;;10.80;99.90;;;;;;4992148;28;20846;-59
2021/05/27 00:48:08;;;;;;;2.10;1.50;;;10.80;99.90;;;;;;4990639;28;20184;-58
2021/05/27 00:50:34;;;;;;;1.60;1.50;;;11.10;99.90;;;;;;4990901;28;20235;-58
2021/05/27 00:53:00;;;;;;;1.57;1.30;;;11.00;99.90;;;;;;4991578;28;20630;-58
2021/05/27 00:55:31;;;;;;;1.83;1.73;;;10.90;99.90;;;;;;4990699;28;20200;-58
2021/05/27 00:57:57;;;;;;;1.88;1.73;;;10.80;99.90;;;;;;4990664;28;20183;-58
2021/05/27 01:00:25;;;;;;;1.80;1.40;;;10.90;99.90;;;;;;4990971;28;20251;-58
2021/05/27 01:02:52;;;;;;;2.50;1.20;;;10.70;99.90;;;;;;4991134;28;20284;-58
2021/05/27 01:05:18;;;;;;;1.75;1.23;;;10.80;99.90;;;;;;4991492;28;20572;-57
2021/05/27 01:07:44;;;;;;;1.30;1.20;;;10.90;99.90;;;;;;4990759;28;20187;-59
2021/05/27 01:10:13;;;;;;;1.52;1.42;;;10.80;99.90;;;;;;4990679;28;20677;-59
2021/05/27 01:12:39;;;;;;;1.50;1.40;;;11.00;99.90;;;;;;4990838;28;20637;-58
2021/05/27 01:17:55;;;;;;;1.75;1.35;;;10.70;99.90;;;;;;4992602;28;20219;-59
2021/05/27 01:20:23;;;;;;;1.50;1.40;;;10.70;99.90;;;;;;4990168;28;20223;-58
2021/05/27 01:22:49;;;;;;;1.92;1.50;;;10.70;99.90;;;;;;4991005;28;20195;-58
2021/05/27 01:25:15;;;;;;;1.55;1.45;;;10.80;99.90;;;;;;4990456;28;20204;-58
2021/05/27 01:27:41;;;;;;;2.70;1.57;;;10.70;99.90;;;;;;4990768;28;20601;-59
2021/05/27 01:30:10;;;;;;;1.40;1.30;;;10.90;99.90;;;;;;4990472;28;20516;-59
2021/05/27 01:32:36;;;;;;;1.63;1.52;;;10.70;99.90;;;;;;4992083;28;20188;-57
2021/05/27 01:35:04;;;;;;;1.83;1.40;;;10.90;99.90;;;;;;4989873;28;20206;-57
2021/05/27 01:37:30;;;;;;;1.52;1.40;;;11.00;99.90;;;;;;4990246;28;20414;-57
2021/05/27 01:39:56;;;;;;;2.22;1.50;;;11.10;99.90;;;;;;4989958;28;20202;-57
2021/05/27 01:42:22;;;;;;;1.40;1.30;;;11.10;99.90;;;;;;4990332;28;20196;-56
2021/05/27 01:44:48;;;;;;;1.80;1.70;;;10.80;99.90;;;;;;4990031;28;20499;-56
2021/05/27 01:47:14;;;;;;;2.00;1.37;;;10.80;99.90;;;;;;4990329;28;20187;-57
2021/05/27 01:49:41;;;;;;;2.10;1.90;;;10.70;99.90;;;;;;4989113;28;20449;-58
2021/05/27 01:52:07;;;;;;;1.85;1.75;;;10.90;99.90;;;;;;4990119;28;20194;-57
2021/05/27 01:54:33;;;;;;;1.60;1.50;;;10.70;99.90;;;;;;4991359;28;20200;-58
2021/05/27 01:56:58;;;;;;;2.93;1.80;;;10.70;99.90;;;;;;4989800;28;20248;-58
2021/05/27 01:59:24;;;;;;;2.30;1.90;;;10.90;99.90;;;;;;4989460;28;20203;-58
2021/05/27 02:01:54;;;;;;;1.60;1.50;;;10.90;99.90;;;;;;4990067;28;20280;-58
2021/05/27 02:04:19;;;;;;;1.90;1.80;;;10.60;99.90;;;;;;4990049;28;20202;-60
2021/05/27 02:06:45;;;;;;;2.70;1.67;;;11.00;99.90;;;;;;4991273;28;20179;-58
2021/05/27 02:09:11;;;;;;;2.00;1.80;;;10.90;99.90;;;;;;4989023;28;20685;-58
2021/05/27 02:11:48;;;;;;;1.57;1.40;;;10.80;99.90;;;;;;4988975;28;20195;-59
2021/05/27 02:14:16;;;;;;;2.58;1.35;;;10.90;99.90;;;;;;4988608;28;20287;-59
2021/05/27 02:16:43;;;;;;;1.80;1.60;;;10.70;99.90;;;;;;4989322;28;20180;-58
2021/05/27 02:19:10;;;;;;;1.80;1.70;;;10.70;99.90;;;;;;4989355;28;20176;-59
2021/05/27 02:21:36;;;;;;;1.40;1.30;;;10.90;99.90;;;;;;4985210;28;20173;-58
2021/05/27 02:24:03;;;;;;;2.10;1.90;;;11.00;99.90;;;;;;4991641;28;20188;-59
2021/05/27 02:26:29;;;;;;;1.95;1.33;;;11.20;99.90;;;;;;4986567;28;20797;-59
2021/05/27 02:28:56;;;;;;;1.75;1.65;;;10.90;99.90;;;;;;4989593;28;20192;-58
2021/05/27 02:31:23;;;;;;;1.85;1.75;;;10.80;99.90;;;;;;4990482;28;20185;-59
2021/05/27 02:33:50;;;;;;;2.20;2.00;;;11.00;99.90;;;;;;4987500;28;20175;-58
2021/05/27 02:36:16;;;;;;;2.10;1.50;;;10.80;99.90;;;;;;4988728;28;20204;-58
2021/05/27 02:38:41;;;;;;;1.70;1.60;;;10.90;99.90;;;;;;4989020;28;20206;-59
2021/05/27 02:41:07;;;;;;;1.60;1.50;;;10.80;99.90;;;;;;4989132;28;20274;-58
2021/05/27 02:43:34;;;;;;;4.00;1.63;;;10.70;99.90;;;;;;4989389;28;20192;-58
2021/05/27 02:46:01;;;;;;;1.63;1.52;;;10.70;99.90;;;;;;4990443;28;20463;-59
2021/05/27 02:48:28;;;;;;;1.83;1.58;;;10.60;99.90;;;;;;4989237;28;20242;-59
2021/05/27 02:50:54;;;;;;;1.90;1.38;;;10.80;99.90;;;;;;4990695;28;20220;-58
2021/05/27 02:53:19;;;;;;;2.10;1.60;;;11.00;99.90;;;;;;4989780;28;20186;-59
2021/05/27 02:55:45;;;;;;;2.00;1.90;;;11.10;99.90;;;;;;4988653;28;20443;-60
2021/05/27 02:58:11;;;;;;;1.80;1.70;;;11.10;99.90;;;;;;4990680;28;20649;-59
2021/05/27 03:00:39;;;;;;;1.53;1.43;;;11.00;99.90;;;;;;4990792;28;20191;-59
2021/05/27 03:03:05;;;;;;;2.03;1.80;;;11.00;99.90;;;;;;4981975;28;20180;-58
2021/05/27 03:05:31;;;;;;;1.90;1.70;;;10.80;99.90;;;;;;4989081;28;20235;-58
2021/05/27 03:07:57;;;;;;;3.37;1.60;;;10.80;99.90;;;;;;4989171;28;20676;-58
2021/05/27 03:10:22;;;;;;;2.10;1.40;;;10.80;99.90;;;;;;4985826;28;20446;-58
2021/05/27 03:12:48;;;;;;;2.00;1.90;;;10.60;99.90;;;;;;4985789;28;20180;-59
2021/05/27 03:15:14;;;;;;;2.07;1.70;;;10.90;99.90;;;;;;4988739;28;20233;-58
2021/05/27 03:17:40;;;;;;;1.98;1.80;;;10.70;99.90;;;;;;4988934;28;20180;-59
2021/05/27 03:20:06;;;;;;;1.83;1.73;;;11.00;99.90;;;;;;4988965;28;20533;-59
2021/05/27 03:22:32;;;;;;;1.60;1.50;;;10.90;99.90;;;;;;4994311;28;20492;-58
2021/05/27 03:24:58;;;;;;;1.90;1.80;;;10.80;99.90;;;;;;4993696;28;20685;-57
2021/05/27 03:27:24;;;;;;;3.70;1.90;;;10.60;99.90;;;;;;4993005;28;20420;-59
2021/05/27 03:29:50;;;;;;;1.77;1.67;;;10.90;99.90;;;;;;4992054;28;20575;-58
2021/05/27 03:32:15;;;;;;;2.23;1.90;;;10.60;99.90;;;;;;4993141;28;20381;-59
2021/05/27 03:34:41;;;;;;;1.83;1.63;;;10.70;99.90;;;;;;4992437;28;20257;-57
2021/05/27 03:37:06;;;;;;;1.67;1.57;;;10.90;99.90;;;;;;4992335;28;20191;-58
2021/05/27 03:39:35;;;;;;;2.30;1.67;;;10.60;99.90;;;;;;4991921;28;20254;-58
2021/05/27 03:42:01;;;;;;;1.77;1.67;;;10.60;99.90;;;;;;4993879;28;20187;-58
2021/05/27 03:44:27;;;;;;;2.37;2.17;;;10.80;99.90;;;;;;4992812;28;20190;-57
2021/05/27 03:46:52;;;;;;;5.40;2.43;;;10.70;99.90;;;;;;4992590;28;20560;-57
2021/05/27 03:49:18;;;;;;;2.50;2.30;;;10.40;99.90;;;;;;4992539;28;20200;-58
2021/05/27 03:51:44;;;;;;;3.70;2.23;;;10.80;99.90;;;;;;4989491;28;20177;-59
2021/05/27 03:54:09;;;;;;;2.53;2.00;;;10.60;99.90;;;;;;4992097;28;20184;-59
2021/05/27 03:56:35;;;;;;;2.07;1.87;;;10.60;99.90;;;;;;4983768;28;20658;-57
2021/05/27 04:01:45;;;;;;;3.05;2.80;;;10.20;99.90;;;;;;4991145;28;20471;-58
2021/05/27 04:09:50;;;;;;;2.13;1.92;;;10.70;99.90;;;;;;4986830;28;20268;-57
2021/05/27 04:17:44;;;;;;;1.77;1.60;;;10.50;99.90;;;;;;4985565;28;20550;-58
2021/05/27 04:20:11;;;;;;;2.30;2.00;;;10.80;99.90;;;;;;4987711;28;20191;-57
2021/05/27 04:22:40;;;;;;;2.10;1.90;;;11.10;99.90;;;;;;4984720;28;20219;-58
2021/05/27 04:25:07;;;;;;;5.05;2.15;;;10.70;99.90;;;;;;4983566;28;20623;-60
2021/05/27 04:27:32;;;;;;;2.20;1.98;;;11.00;99.90;;;;;;4986134;28;20191;-58
2021/05/27 04:30:12;;;;;;;2.13;1.90;;;10.80;99.90;;;;;;4984925;28;20700;-57
2021/05/27 04:32:57;;;;;;;5.93;1.90;;;10.70;99.90;;;;;;4984635;28;20214;-56
2021/05/27 04:35:34;;;;;;;1.90;1.65;;;11.00;99.90;;;;;;4984572;28;20346;-57
2021/05/27 04:38:09;;;;;;;1.98;1.88;;;11.10;99.90;;;;;;4984419;28;20666;-57
2021/05/27 04:40:40;;;;;;;1.92;1.83;;;10.80;99.90;;;;;;4985620;28;20190;-58
2021/05/27 04:43:06;;;;;;;3.92;2.15;;;11.00;99.90;;;;;;4985226;28;20212;-58
2021/05/27 04:45:33;;;;;;;2.00;1.90;;;11.10;99.90;;;;;;4983119;28;20671;-59
2021/05/27 04:47:59;;;;;;;2.20;2.00;;;11.20;99.90;;;;;;4986949;28;20430;-58
2021/05/27 04:50:25;;;;;;;2.00;1.90;;;10.80;99.90;;;;;;4989226;28;20213;-58
2021/05/27 04:52:52;;;;;;;2.10;2.00;;;11.10;99.90;;;;;;4986597;28;20175;-57
2021/05/27 04:55:19;;;;;;;2.40;2.20;;;11.10;99.90;;;;;;4986152;28;20219;-59
2021/05/27 04:57:45;;;;;;;2.30;2.10;;;11.30;99.90;;;;;;4986299;28;20688;-58
2021/05/27 05:00:15;;;;;;;2.00;1.90;;;11.20;99.90;;;;;;4984744;28;20199;-56
2021/05/27 05:02:40;;;;;;;2.97;2.17;;;11.50;99.90;;;;;;4985553;28;20200;-58
2021/05/27 05:05:08;;;;;;;2.30;2.10;;;11.30;99.90;;;;;;4984183;28;20597;-60
2021/05/27 05:07:34;;;;;;;2.03;1.92;;;11.20;99.90;;;;;;4985447;28;20211;-59
2021/05/27 05:10:00;;;;;;;1.83;1.73;;;11.50;99.90;;;;;;4985201;28;20209;-60
2021/05/27 05:12:25;;;;;;;2.30;2.07;;;11.20;99.90;;;;;;4990516;28;20402;-59
2021/05/27 05:14:51;;;;;;;2.40;2.10;;;11.50;99.90;;;;;;4984068;28;20576;-60
2021/05/27 05:17:16;;;;;;;2.60;2.27;;;11.50;99.90;;;;;;4986282;28;20187;-59
2021/05/27 05:19:42;;;;;;;2.30;2.10;;;11.60;99.90;;;;;;4982235;28;20203;-59
2021/05/27 05:22:08;;;;;;;2.30;2.10;;;11.50;99.90;;;;;;4982491;28;20209;-59
2021/05/27 05:24:33;;;;;;;2.60;2.40;;;11.40;99.90;;;;;;4985095;28;20266;-58
2021/05/27 05:27:01;;;;;;;2.30;2.07;;;11.70;99.90;;;;;;4986945;28;20184;-58
2021/05/27 05:29:26;;;;;;;3.90;2.28;;;11.60;99.90;;;;;;4985171;28;20206;-58
2021/05/27 05:31:52;;;;;;;2.40;2.20;;;11.20;99.90;;;;;;4988535;28;20666;-58
2021/05/27 05:34:17;;;;;;;2.43;2.20;;;11.70;99.90;;;;;;4986291;28;20180;-57
2021/05/27 05:36:43;;;;;;;1.97;1.87;;;12.00;99.90;;;;;;4986107;28;20195;-59
2021/05/27 05:39:09;;;;;;;2.27;2.03;;;11.70;99.90;;;;;;4983750;28;20200;-60
2021/05/27 05:41:34;;;;;;;2.83;1.83;;;11.90;99.90;;;;;;4983373;28;20189;-58
2021/05/27 05:44:00;;;;;;;3.37;2.17;;;12.40;99.90;;;;;;4988300;28;20217;-59
2021/05/27 05:46:26;;;;;;;2.00;1.90;;;12.20;99.90;;;;;;4989283;28;20200;-59
2021/05/27 05:48:53;;;;;;;2.10;1.90;;;12.20;99.90;;;;;;4987156;28;20182;-58
2021/05/27 05:51:21;;;;;;;2.00;1.80;;;12.30;99.90;;;;;;4980989;28;20355;-61
2021/05/27 05:53:47;;;;;;;2.30;2.10;;;11.90;99.90;;;;;;4982603;28;20294;-61
2021/05/27 05:56:13;;;;;;;2.57;2.37;;;11.90;99.90;;;;;;4984643;28;21973;-63
2021/05/27 05:58:38;;;;;;;5.03;2.20;;;11.80;99.90;;;;;;4998382;28;20185;-61
2021/05/27 06:01:04;;;;;;;2.50;2.30;;;11.90;99.90;;;;;;4986365;28;20649;-62
2021/05/27 06:03:32;;;;;;;2.27;2.17;;;11.90;99.90;;;;;;4988271;28;20178;-61
2021/05/27 06:05:59;;;;;;;2.45;2.25;;;12.10;99.90;;;;;;4986374;28;20255;-62
2021/05/27 06:08:24;;;;;;;2.50;2.30;;;12.10;99.90;;;;;;4985529;28;20851;-63
2021/05/27 06:10:50;;;;;;;5.37;2.00;;;12.20;99.90;;;;;;4988804;28;20298;-62
2021/05/27 06:13:17;;;;;;;2.47;1.80;;;12.10;99.90;;;;;;4986294;28;22726;-63
2021/05/27 06:15:43;;;;;;;1.75;1.52;;;12.20;99.90;;;;;;4982533;28;20464;-58
2021/05/27 06:18:09;;;;;;;1.93;1.60;;;12.50;99.90;;;;;;4981706;28;20193;-58
2021/05/27 06:20:34;;;;;;;2.60;1.73;;;12.60;99.90;;;;;;4980473;28;20686;-59
2021/05/27 06:23:00;;;;;;;1.90;1.70;;;12.30;99.90;;;;;;4985367;28;20280;-59
2021/05/27 06:25:26;;;;;;;1.73;1.63;;;12.60;99.70;;;;;;4996751;28;20220;-60
2021/05/27 06:27:53;;;;;;;3.15;1.80;;;12.70;99.60;;;;;;4983182;28;20572;-58
2021/05/27 06:30:21;;;;;;;1.80;1.70;;;13.10;99.20;;;;;;4982966;28;20705;-59
2021/05/27 06:32:46;;;;;;;2.58;1.90;;;12.90;98.40;;;;;;4986796;28;20194;-57
2021/05/27 06:35:13;;;;;;;1.50;1.40;;;13.20;97.70;;;;;;4987407;28;20203;-58
2021/05/27 06:37:41;;;;;;;3.45;2.00;;;13.00;97.40;;;;;;4986482;28;20271;-57
2021/05/27 06:40:09;;;;;;;2.47;1.70;;;13.20;97.50;;;;;;4983085;28;20214;-57
2021/05/27 06:42:35;;;;;;;2.83;1.80;;;13.20;96.50;;;;;;4986427;28;20565;-57
2021/05/27 06:45:01;;;;;;;2.50;2.30;;;13.60;96.10;;;;;;4984735;28;20218;-58
2021/05/27 06:47:29;;;;;;;2.00;1.47;;;13.60;95.60;;;;;;4981284;28;20258;-57
2021/05/27 06:49:55;;;;;;;2.22;1.63;;;13.80;95.70;;;;;;4983287;28;20476;-58
2021/05/27 06:52:20;;;;;;;2.07;1.60;;;14.00;95.70;;;;;;4981143;28;20201;-58
2021/05/27 06:54:46;;;;;;;1.80;1.70;;;14.00;95.30;;;;;;4981534;28;20265;-57
2021/05/27 06:57:11;;;;;;;4.23;2.10;;;14.40;95.70;;;;;;4994051;28;20183;-59
2021/05/27 06:59:37;;;;;;;4.80;2.00;;;14.70;95.10;;;;;;4987584;28;20187;-58
2021/05/27 07:02:03;;;;;;;2.03;1.83;;;15.30;94.50;;;;;;4990071;28;20218;-58
2021/05/27 07:04:28;;;;;;;1.97;1.67;;;16.50;93.30;;;;;;4993423;28;20293;-58
2021/05/27 07:06:54;;;;;;;2.30;1.67;;;18.00;89.90;;;;;;4995849;28;20352;-57
2021/05/27 07:09:20;;;;;;;1.60;1.50;;;19.40;80.70;;;;;;4992871;28;20187;-56
2021/05/27 07:11:46;;;;;;;2.20;1.17;;;20.20;76.70;;;;;;4982392;28;20592;-57
2021/05/27 07:14:12;;;;;;;1.85;1.35;;;21.20;69.60;;;;;;4991806;28;20543;-58
2021/05/27 07:16:38;;;;;;;1.47;1.37;;;20.90;68.10;;;;;;4993737;28;20180;-64
2021/05/27 07:19:04;;;;;;;1.83;1.10;;;21.00;67.60;;;;;;4991133;28;20771;-57
2021/05/27 07:21:29;;;;;;;1.20;1.00;;;20.40;67.40;;;;;;4993487;28;20445;-57
2021/05/27 07:23:55;;;;;;;2.53;1.30;;;19.40;69.00;;;;;;4989683;28;20707;-59
2021/05/27 07:26:21;;;;;;;1.47;1.10;;;18.80;71.40;;;;;;4993974;28;20203;-59
2021/05/27 07:28:47;;;;;;;1.50;1.40;;;18.90;70.80;;;;;;4988391;28;20732;-58
2021/05/27 07:31:13;;;;;;;2.63;1.60;;;18.30;72.10;;;;;;4991810;28;20301;-59
2021/05/27 07:33:39;;;;;;;1.33;1.23;;;18.00;73.20;;;;;;4993742;28;20183;-59
2021/05/27 07:36:05;;;;;;;2.37;1.63;;;17.60;74.90;;;;;;4985749;28;20221;-57
2021/05/27 07:38:31;;;;;;;1.48;1.38;;;18.50;75.10;;;;;;4993840;28;20195;-56
2021/05/27 07:40:59;;;;;;;1.60;1.50;;;20.50;68.70;;;;;;4993568;28;20187;-56
2021/05/27 07:43:24;;;;;;;1.30;1.20;;;23.10;63.00;;;;;;5000023;28;20476;-55
2021/05/27 07:45:50;;;;;;;1.37;1.20;;;24.60;55.90;;;;;;5018331;28;21018;-56
2021/05/27 07:48:16;;;;;;;2.40;1.37;;;25.20;54.10;;;;;;4993249;28;20190;-56
2021/05/27 07:50:41;;;;;;;1.30;1.20;;;25.20;52.80;;;;;;4993321;28;20693;-55
2021/05/27 07:53:09;;;;;;;7.63;2.00;;;23.90;53.10;;;;;;4991832;28;20271;-56
2021/05/27 07:55:35;;;;;;;1.40;1.30;;;23.30;54.40;;;;;;4992442;28;20207;-58
2021/05/27 07:58:02;;;;;;;3.83;1.40;;;22.50;55.30;;;;;;4993535;28;20446;-58
2021/05/27 08:00:28;;;;;;;1.87;1.70;;;21.80;56.30;;;;;;4992873;28;20521;-59
2021/05/27 08:02:53;;;;;;;2.50;1.80;;;21.90;57.40;;;;;;4994270;28;20885;-59
2021/05/27 08:05:20;;;;;;;1.20;1.10;;;23.00;57.30;;;;;;4993523;28;20614;-60
2021/05/27 08:07:46;;;;;;;4.50;1.83;;;23.60;54.50;;;;;;4983210;28;20188;-60
2021/05/27 08:10:13;;;;;;;20.17;15.47;;;22.90;54.10;;;;;;4983298;28;20462;-60
2021/05/27 08:12:39;;;;;;;2.83;1.90;;;22.30;54.50;;;;;;4990984;28;20442;-58
2021/05/27 08:15:06;;;;;;;2.38;1.70;;;21.50;56.30;;;;;;4987544;28;20584;-56
2021/05/27 08:17:32;;;;;;;3.92;1.85;;;21.00;58.00;;;;;;4985474;28;20184;-57
2021/05/27 08:19:58;;;;;;;2.47;1.97;;;21.50;58.30;;;;;;4990228;28;20701;-58
2021/05/27 08:22:27;;;;;;;1.70;1.60;;;22.20;56.30;;;;;;4984698;28;20442;-57
2021/05/27 08:24:53;;;;;;;2.08;1.50;;;21.00;56.10;;;;;;4988531;28;20584;-56
2021/05/27 08:27:18;;;;;;;3.80;2.10;;;20.40;57.90;;;;;;4989053;28;20553;-58
2021/05/27 08:29:44;;;;;;;2.53;1.80;;;19.10;58.90;;;;;;4987286;28;20211;-57
2021/05/27 08:32:10;;;;;;;1.57;1.47;;;19.90;60.80;;;;;;4988309;28;20604;-58
2021/05/27 08:34:36;;;;;;;2.60;1.33;;;21.60;57.00;;;;;;4987501;28;20634;-55
2021/05/27 08:37:01;;;;;;;1.87;1.33;;;23.30;54.20;;;;;;4990516;28;20186;-56
2021/05/27 08:39:27;;;;;;;3.20;1.93;;;24.50;52.30;;;;;;4990737;28;20537;-56
2021/05/27 08:41:53;;;;;;;1.47;1.37;;;25.20;50.10;;;;;;4986774;28;20242;-57
2021/05/27 08:44:18;;;;;;;2.13;1.43;;;25.30;48.70;;;;;;4983125;28;20328;-58
2021/05/27 08:46:47;;;;;;;1.93;1.10;;;23.80;49.50;;;;;;5006157;28;20202;-58
2021/05/27 08:49:13;;;;;;;1.90;1.80;;;22.70;52.00;;;;;;4989228;28;20193;-58
2021/05/27 08:51:39;;;;;;;1.40;1.30;;;22.60;52.90;;;;;;4990304;28;20442;-58
2021/05/27 08:54:05;;;;;;;3.03;1.60;;;23.60;52.00;;;;;;4987156;28;20447;-57
2021/05/27 08:56:32;;;;;;;1.90;1.70;;;23.40;51.40;;;;;;4990385;28;20222;-61
2021/05/27 08:58:58;;;;;;;2.05;1.70;;;21.90;52.70;;;;;;4988699;28;20447;-61
2021/05/27 09:01:24;;;;;;;5.57;3.80;;;21.00;53.80;;;;;;4989536;28;20732;-62
2021/05/27 09:03:53;;;;;;;3.00;1.97;;;21.10;55.60;;;;;;4990458;28;20671;-62
2021/05/27 09:06:19;;;;;;;2.80;1.60;;;22.50;54.00;;;;;;4988693;28;20464;-59
2021/05/27 09:08:44;;;;;;;2.07;1.50;;;23.10;52.10;;;;;;4987977;28;20527;-59
2021/05/27 09:11:13;;;;;;;1.70;1.30;;;24.30;49.80;;;;;;4989298;28;20261;-59
2021/05/27 09:13:57;;;;;;;1.80;1.70;;;23.60;50.10;;;;;;4987858;28;20180;-60
2021/05/27 09:16:22;;;;;;;3.80;1.60;;;22.60;51.00;;;;;;4987859;28;20465;-60
2021/05/27 09:18:49;;;;;;;2.63;1.80;;;22.40;52.00;;;;;;4985512;28;20435;-60
2021/05/27 09:21:36;;;;;;;2.78;1.23;;;23.90;50.40;;;;;;4987810;28;21273;-61
2021/05/27 09:24:02;;;;;;;2.90;1.60;;;25.40;48.50;;;;;;4985244;28;20373;-60
2021/05/27 09:26:28;;;;;;;1.43;1.33;;;24.70;47.10;;;;;;4989011;28;20557;-57
2021/05/27 09:29:12;;;;;;;1.67;1.57;;;23.60;49.80;;;;;;4986279;28;20940;-58
2021/05/27 09:32:03;;;;;;;1.38;1.27;;;22.80;50.30;;;;;;4986929;28;20457;-60
2021/05/27 09:34:46;;;;;;;2.97;2.17;;;21.10;52.40;;;;;;5009698;28;20337;-60
2021/05/27 09:37:29;;;;;;;2.88;1.63;;;20.20;55.10;;;;;;4992683;28;20191;-57
2021/05/27 09:39:57;;;;;;;2.33;1.40;;;20.00;56.40;;;;;;4988523;28;20189;-59
2021/05/27 09:42:23;;;;;;;2.45;1.27;;;21.00;54.90;;;;;;4987548;28;20229;-59
2021/05/27 09:44:50;;;;;;;3.03;1.50;;;20.90;54.40;;;;;;4986415;28;20443;-58
2021/05/27 09:47:29;;;;;;;2.17;1.50;;;20.70;55.60;;;;;;4985539;28;20969;-59
2021/05/27 09:49:57;;;;;;;1.75;1.60;;;20.30;54.90;;;;;;4982725;28;20204;-62
2021/05/27 09:52:26;;;;;;;1.60;1.50;;;19.90;55.90;;;;;;4987265;28;20229;-58
2021/05/27 09:54:59;;;;;;;3.63;1.90;;;19.30;57.10;;;;;;4983647;28;20318;-59
2021/05/27 09:57:28;;;;;;;2.83;1.67;;;19.10;58.10;;;;;;4985444;28;20664;-58
2021/05/27 09:59:55;;;;;;;2.00;1.80;;;18.90;58.90;;;;;;4990256;28;20268;-58
2021/05/27 10:02:22;;;;;;;1.50;1.40;;;18.40;59.00;;;;;;4982676;28;20198;-58
2021/05/27 10:04:57;;;;;;;2.00;1.50;;;18.30;59.50;;;;;;4992353;28;20211;-58
2021/05/27 10:07:41;;;;;;;2.88;2.00;;;18.00;59.50;;;;;;4987405;28;20195;-59
2021/05/27 10:10:12;;;;;;;2.28;1.40;;;17.80;61.00;;;;;;4984930;28;20455;-61
2021/05/27 10:12:51;;;;;;;2.10;1.70;;;18.00;60.80;;;;;;4983534;28;20195;-61
2021/05/27 10:15:23;;;;;;;2.08;1.30;;;18.70;60.30;;;;;;4985735;28;20214;-60
2021/05/27 10:17:51;;;;;;;1.65;1.20;;;18.80;58.00;;;;;;4987837;28;20199;-62
2021/05/27 10:20:19;;;;;;;2.67;1.65;;;19.00;58.00;;;;;;4985541;28;20203;-61
2021/05/27 10:22:45;;;;;;;3.90;1.70;;;19.00;57.70;;;;;;4982788;28;20556;-60
2021/05/27 10:25:14;;;;;;;1.80;1.48;;;18.50;58.30;;;;;;4986525;28;20212;-60
2021/05/27 10:27:45;;;;;;;1.85;1.65;;;18.30;59.00;;;;;;4983925;28;20184;-60
2021/05/27 10:30:13;;;;;;;1.52;1.42;;;18.20;59.80;;;;;;4981457;28;20303;-61
2021/05/27 10:32:49;;;;;;;2.45;1.70;;;17.90;60.50;;;;;;4987185;28;20698;-61
2021/05/27 10:35:15;;;;;;;1.75;1.55;;;17.50;61.10;;;;;;5000712;28;20339;-60
2021/05/27 10:37:42;;;;;;;2.28;1.58;;;17.40;61.80;;;;;;4985710;28;20234;-60
2021/05/27 10:40:11;;;;;;;2.80;2.60;;;17.10;63.00;;;;;;5005173;28;20210;-61
2021/05/27 10:42:55;;;;;;;1.83;1.73;;;16.90;64.40;;;;;;4988435;28;20262;-61
2021/05/27 10:45:23;;;;;;;3.58;1.58;;;16.90;65.30;;;;;;4996250;28;20537;-60
2021/05/27 10:48:16;;;;;;;4.25;1.65;;;17.00;66.20;;;;;;4982292;28;20195;-59
2021/05/27 10:50:52;;;;;;;3.38;3.08;;;16.90;67.80;;;;;;4987874;28;20664;-60
2021/05/27 10:53:34;;;;;;;3.63;2.80;;;16.80;68.80;;;;;;4986190;28;20211;-61
2021/05/27 10:56:00;;;;;;;3.30;3.00;;;16.70;69.90;;;;;;4986607;28;20472;-58
2021/05/27 10:58:45;;;;;;;4.93;2.38;;;16.70;69.30;;;;;;4988695;28;20188;-56
2021/05/27 11:01:11;;;;;;;2.58;1.90;;;17.00;70.20;;;;;;4986769;28;20199;-58
2021/05/27 11:03:46;;;;;;;2.55;1.95;;;17.30;68.80;;;;;;4988478;28;20192;-58
2021/05/27 11:06:22;;;;;;;2.22;2.03;;;17.30;68.60;;;;;;4987487;28;20202;-58
2021/05/27 11:09:13;;;;;;;1.50;1.40;;;17.20;68.70;;;;;;5001824;28;20265;-57
2021/05/27 11:11:57;;;;;;;3.30;1.63;;;17.40;68.60;;;;;;4984292;28;20184;-59
2021/05/27 11:14:51;;;;;;;1.90;1.80;;;17.40;67.00;;;;;;4986556;28;20192;-58
2021/05/27 11:17:19;;;;;;;1.90;1.70;;;17.50;67.00;;;;;;4987889;28;20250;-58
2021/05/27 11:19:59;;;;;;;1.48;1.38;;;17.30;65.90;;;;;;4987557;28;20188;-58
2021/05/27 11:25:08;;;;;;;1.55;1.45;;;19.00;62.70;;;;;;4981041;28;20211;-58
2021/05/27 11:27:42;;;;;;;3.25;1.45;;;19.60;60.90;;;;;;5001126;28;20630;-60
2021/05/27 11:30:21;;;;;;;1.48;1.38;;;20.40;59.50;;;;;;4986409;28;20669;-60
2021/05/27 11:32:50;;;;;;;1.70;1.60;;;20.80;58.80;;;;;;4988061;28;20191;-60
2021/05/27 11:35:17;;;;;;;2.60;2.00;;;20.90;57.50;;;;;;4985945;28;20216;-58
2021/05/27 11:37:44;;;;;;;1.58;1.48;;;20.70;57.10;;;;;;4996716;28;20665;-59
2021/05/27 11:40:12;;;;;;;3.65;1.50;;;20.70;57.00;;;;;;4977493;28;20633;-58
2021/05/27 11:42:38;;;;;;;2.33;1.80;;;20.60;55.70;;;;;;4984258;28;20196;-59
2021/05/27 11:45:07;;;;;;;1.83;1.45;;;20.70;56.20;;;;;;4990445;28;20546;-57
2021/05/27 11:47:32;;;;;;;2.22;2.00;;;21.00;55.80;;;;;;4990416;28;20184;-57
2021/05/27 11:50:08;;;;;;;1.70;1.60;;;20.90;56.50;;;;;;4983550;28;20207;-57
2021/05/27 11:52:33;;;;;;;1.48;1.35;;;20.60;56.70;;;;;;4988455;28;20645;-57
2021/05/27 11:54:59;;;;;;;1.73;1.57;;;20.30;56.80;;;;;;4989825;28;20242;-58
2021/05/27 11:57:48;;;;;;;2.50;1.70;;;19.60;58.20;;;;;;4988257;28;20207;-58
2021/05/27 12:00:19;;;;;;;3.13;1.45;;;19.30;59.90;;;;;;4988464;28;20649;-57
2021/05/27 12:02:53;;;;;;;2.90;1.50;;;19.20;59.60;;;;;;4990083;28;20180;-57
2021/05/27 12:05:24;;;;;;;2.55;2.10;;;18.90;59.90;;;;;;4976482;28;20302;-57
2021/05/27 12:08:05;;;;;;;1.60;1.50;;;18.80;60.80;;;;;;4987035;28;20277;-57
2021/05/27 12:10:44;;;;;;;2.33;1.70;;;18.70;60.70;;;;;;4989236;28;20222;-57
2021/05/27 12:13:18;;;;;;;1.45;1.35;;;18.60;61.20;;;;;;4991407;28;20550;-58
2021/05/27 12:15:45;;;;;;;1.50;1.40;;;18.70;61.50;;;;;;4982146;28;20289;-58
2021/05/27 12:18:16;;;;;;;1.80;1.70;;;18.70;62.00;;;;;;4990038;28;20724;-58
2021/05/27 12:20:45;;;;;;;1.95;1.35;;;18.80;62.50;;;;;;4988441;28;20665;-58
2021/05/27 12:23:15;;;;;;;2.05;1.85;;;19.00;60.50;;;;;;4990807;28;20599;-57
2021/05/27 12:25:45;;;;;;;1.38;1.17;;;19.00;59.60;;;;;;4987252;28;20211;-58
2021/05/27 12:28:10;;;;;;;1.40;1.30;;;19.10;59.00;;;;;;4990169;28;20310;-58
2021/05/27 12:30:38;;;;;;;1.50;1.30;;;19.20;59.20;;;;;;4990032;28;20720;-59
2021/05/27 12:33:07;;;;;;;1.40;1.30;;;19.30;59.50;;;;;;4990385;28;20262;-57
2021/05/27 12:35:34;;;;;;;1.60;1.50;;;19.30;60.70;;;;;;4985059;28;20258;-57
2021/05/27 12:38:02;;;;;;;3.28;1.60;;;19.40;60.40;;;;;;4990354;28;20214;-56
2021/05/27 12:40:33;;;;;;;2.17;1.50;;;19.50;60.40;;;;;;4987856;28;20648;-56
2021/05/27 12:43:02;;;;;;;2.58;1.60;;;19.40;60.90;;;;;;5005669;28;20270;-57
2021/05/27 12:45:38;;;;;;;1.70;1.60;;;19.30;60.90;;;;;;4987883;28;20243;-57
2021/05/27 12:48:15;;;;;;;2.60;1.38;;;19.40;60.00;;;;;;4984037;28;20183;-58
2021/05/27 12:50:50;;;;;;;1.55;1.45;;;19.30;58.80;;;;;;4987104;28;20211;-57
2021/05/27 12:53:31;;;;;;;2.55;1.80;;;19.60;59.10;;;;;;5000535;28;20608;-59
2021/05/27 12:56:18;;;;;;;2.00;1.35;;;19.70;59.10;;;;;;4984209;28;20294;-58
2021/05/27 12:58:50;;;;;;;1.35;1.20;;;19.70;58.30;;;;;;4982427;28;20718;-58
2021/05/27 13:01:29;;;;;;;1.77;1.63;;;19.80;58.80;;;;;;4985806;28;20188;-57
2021/05/27 13:03:54;;;;;;;2.33;2.13;;;19.70;58.90;;;;;;4986717;28;20276;-58
2021/05/27 13:06:22;;;;;;;3.20;1.50;;;19.20;60.20;;;;;;4987423;28;20225;-58
2021/05/27 13:08:55;;;;;;;2.60;2.40;;;18.90;61.10;;;;;;4988548;28;20199;-61
2021/05/27 13:11:30;;;;;;;1.73;1.63;;;18.90;61.80;;;;;;5004620;28;20215;-60
2021/05/27 13:13:57;;;;;;;2.65;1.30;;;18.90;60.20;;;;;;4987879;28;20201;-60